sensor_id;sensor_type;location;lat;lon;timestamp;P1;durP1;ratioP1;P2;durP2;ratioP2
12218;SDS011;6172;42.646;23.344;2022-12-18T00:02:13;3.90;;;3.10;;
12218;SDS011;6172;42.646;23.344;2022-12-18T00:04:39;4.03;;;3.33;;
12218;SDS011;6172;42.646;23.344;2022-12-18T00:07:06;4.07;;;3.27;;
12218;SDS011;6172;42.646;23.344;2022-12-18T00:09:33;3.90;;;3.40;;
12218;SDS011;6172;42.646;23.344;2022-12-18T00:12:00;3.80;;;3.23;;
12218;SDS011;6172;42.646;23.344;2022-12-18T00:14:31;4.63;;;3.43;;
12218;SDS011;6172;42.646;23.344;2022-12-18T00:16:58;5.27;;;3.80;;
12218;SDS011;6172;42.646;23.344;2022-12-18T00:19:25;5.17;;;3.90;;
12218;SDS011;6172;42.646;23.344;2022-12-18T00:21:53;5.37;;;3.83;;
12218;SDS011;6172;42.646;23.344;2022-12-18T00:24:20;5.33;;;3.90;;
12218;SDS011;6172;42.646;23.344;2022-12-18T00:26:47;4.40;;;3.60;;
12218;SDS011;6172;42.646;23.344;2022-12-18T00:29:14;5.30;;;3.70;;
12218;SDS011;6172;42.646;23.344;2022-12-18T00:31:42;6.00;;;4.50;;
12218;SDS011;6172;42.646;23.344;2022-12-18T00:34:10;6.00;;;4.33;;
12218;SDS011;6172;42.646;23.344;2022-12-18T00:36:38;5.30;;;4.47;;
12218;SDS011;6172;42.646;23.344;2022-12-18T00:39:06;5.50;;;4.23;;
12218;SDS011;6172;42.646;23.344;2022-12-18T00:41:33;6.27;;;5.00;;
12218;SDS011;6172;42.646;23.344;2022-12-18T00:44:17;5.57;;;4.43;;
12218;SDS011;6172;42.646;23.344;2022-12-18T00:46:47;6.47;;;4.90;;
12218;SDS011;6172;42.646;23.344;2022-12-18T00:49:14;8.60;;;4.60;;
12218;SDS011;6172;42.646;23.344;2022-12-18T00:51:42;6.70;;;4.73;;
12218;SDS011;6172;42.646;23.344;2022-12-18T00:54:09;6.70;;;4.80;;
12218;SDS011;6172;42.646;23.344;2022-12-18T00:56:38;6.30;;;4.43;;
12218;SDS011;6172;42.646;23.344;2022-12-18T00:59:05;7.20;;;4.50;;
12218;SDS011;6172;42.646;23.344;2022-12-18T01:01:32;6.43;;;4.80;;
12218;SDS011;6172;42.646;23.344;2022-12-18T01:04:02;6.57;;;5.33;;
12218;SDS011;6172;42.646;23.344;2022-12-18T01:06:29;6.37;;;4.90;;
12218;SDS011;6172;42.646;23.344;2022-12-18T01:08:56;6.33;;;5.47;;
12218;SDS011;6172;42.646;23.344;2022-12-18T01:11:24;7.73;;;5.20;;
12218;SDS011;6172;42.646;23.344;2022-12-18T01:13:51;6.80;;;4.83;;
12218;SDS011;6172;42.646;23.344;2022-12-18T01:16:18;8.73;;;6.00;;
12218;SDS011;6172;42.646;23.344;2022-12-18T01:18:45;7.50;;;5.07;;
12218;SDS011;6172;42.646;23.344;2022-12-18T01:21:15;7.60;;;5.70;;
12218;SDS011;6172;42.646;23.344;2022-12-18T01:23:45;8.43;;;5.63;;
12218;SDS011;6172;42.646;23.344;2022-12-18T01:26:13;7.23;;;5.23;;
12218;SDS011;6172;42.646;23.344;2022-12-18T01:28:41;7.20;;;6.03;;
12218;SDS011;6172;42.646;23.344;2022-12-18T01:31:14;8.67;;;5.53;;
12218;SDS011;6172;42.646;23.344;2022-12-18T01:33:43;8.90;;;5.90;;
12218;SDS011;6172;42.646;23.344;2022-12-18T01:36:21;7.63;;;5.40;;
12218;SDS011;6172;42.646;23.344;2022-12-18T01:38:50;7.20;;;5.50;;
12218;SDS011;6172;42.646;23.344;2022-12-18T01:41:20;8.47;;;5.83;;
12218;SDS011;6172;42.646;23.344;2022-12-18T01:43:50;8.47;;;5.10;;
12218;SDS011;6172;42.646;23.344;2022-12-18T01:46:20;7.73;;;5.20;;
12218;SDS011;6172;42.646;23.344;2022-12-18T01:48:49;7.80;;;5.13;;
12218;SDS011;6172;42.646;23.344;2022-12-18T01:51:18;7.07;;;5.30;;
12218;SDS011;6172;42.646;23.344;2022-12-18T01:53:47;8.27;;;5.20;;
12218;SDS011;6172;42.646;23.344;2022-12-18T01:56:15;6.53;;;4.80;;
12218;SDS011;6172;42.646;23.344;2022-12-18T01:58:47;8.77;;;5.67;;
12218;SDS011;6172;42.646;23.344;2022-12-18T02:01:20;8.33;;;5.60;;
12218;SDS011;6172;42.646;23.344;2022-12-18T02:03:47;7.30;;;5.33;;
12218;SDS011;6172;42.646;23.344;2022-12-18T02:06:15;7.77;;;5.80;;
12218;SDS011;6172;42.646;23.344;2022-12-18T02:08:56;6.47;;;4.53;;
12218;SDS011;6172;42.646;23.344;2022-12-18T02:11:36;8.17;;;5.27;;
12218;SDS011;6172;42.646;23.344;2022-12-18T02:14:11;8.37;;;5.40;;
12218;SDS011;6172;42.646;23.344;2022-12-18T02:16:48;9.67;;;5.80;;
12218;SDS011;6172;42.646;23.344;2022-12-18T02:19:24;8.83;;;6.07;;
12218;SDS011;6172;42.646;23.344;2022-12-18T02:22:06;7.10;;;5.17;;
12218;SDS011;6172;42.646;23.344;2022-12-18T02:24:51;9.47;;;6.17;;
12218;SDS011;6172;42.646;23.344;2022-12-18T02:27:27;8.63;;;5.60;;
12218;SDS011;6172;42.646;23.344;2022-12-18T02:29:57;7.57;;;5.60;;
12218;SDS011;6172;42.646;23.344;2022-12-18T02:32:28;7.53;;;5.30;;
12218;SDS011;6172;42.646;23.344;2022-12-18T02:34:58;9.40;;;5.90;;
12218;SDS011;6172;42.646;23.344;2022-12-18T02:37:28;9.23;;;5.33;;
12218;SDS011;6172;42.646;23.344;2022-12-18T02:39:57;7.83;;;6.07;;
12218;SDS011;6172;42.646;23.344;2022-12-18T02:42:27;8.53;;;5.80;;
12218;SDS011;6172;42.646;23.344;2022-12-18T02:44:54;10.40;;;6.27;;
12218;SDS011;6172;42.646;23.344;2022-12-18T02:47:22;7.00;;;5.80;;
12218;SDS011;6172;42.646;23.344;2022-12-18T02:49:53;8.33;;;5.97;;
12218;SDS011;6172;42.646;23.344;2022-12-18T02:52:27;11.43;;;5.87;;
12218;SDS011;6172;42.646;23.344;2022-12-18T02:55:00;8.30;;;6.30;;
12218;SDS011;6172;42.646;23.344;2022-12-18T02:57:36;9.13;;;6.33;;
12218;SDS011;6172;42.646;23.344;2022-12-18T03:00:10;9.40;;;6.20;;
12218;SDS011;6172;42.646;23.344;2022-12-18T03:02:41;6.03;;;4.83;;
12218;SDS011;6172;42.646;23.344;2022-12-18T03:05:13;9.73;;;5.87;;
12218;SDS011;6172;42.646;23.344;2022-12-18T03:07:45;6.77;;;5.20;;
12218;SDS011;6172;42.646;23.344;2022-12-18T03:10:18;8.27;;;5.60;;
12218;SDS011;6172;42.646;23.344;2022-12-18T03:12:52;8.00;;;5.90;;
12218;SDS011;6172;42.646;23.344;2022-12-18T03:15:25;7.37;;;5.73;;
12218;SDS011;6172;42.646;23.344;2022-12-18T03:17:56;8.27;;;5.47;;
12218;SDS011;6172;42.646;23.344;2022-12-18T03:20:28;8.63;;;5.63;;
12218;SDS011;6172;42.646;23.344;2022-12-18T03:22:59;7.87;;;5.40;;
12218;SDS011;6172;42.646;23.344;2022-12-18T03:25:30;9.10;;;6.13;;
12218;SDS011;6172;42.646;23.344;2022-12-18T03:28:00;8.27;;;5.53;;
12218;SDS011;6172;42.646;23.344;2022-12-18T03:30:34;8.37;;;5.97;;
12218;SDS011;6172;42.646;23.344;2022-12-18T03:33:05;8.30;;;5.40;;
12218;SDS011;6172;42.646;23.344;2022-12-18T03:35:37;9.63;;;5.10;;
12218;SDS011;6172;42.646;23.344;2022-12-18T03:38:07;9.10;;;5.70;;
12218;SDS011;6172;42.646;23.344;2022-12-18T03:40:37;6.83;;;5.00;;
12218;SDS011;6172;42.646;23.344;2022-12-18T03:43:15;6.60;;;4.97;;
12218;SDS011;6172;42.646;23.344;2022-12-18T03:45:48;6.67;;;4.77;;
12218;SDS011;6172;42.646;23.344;2022-12-18T03:48:24;7.03;;;5.33;;
12218;SDS011;6172;42.646;23.344;2022-12-18T03:50:56;8.77;;;5.13;;
12218;SDS011;6172;42.646;23.344;2022-12-18T03:53:28;9.03;;;5.13;;
12218;SDS011;6172;42.646;23.344;2022-12-18T03:56:03;7.60;;;5.13;;
12218;SDS011;6172;42.646;23.344;2022-12-18T03:58:33;6.97;;;4.67;;
12218;SDS011;6172;42.646;23.344;2022-12-18T04:01:05;7.27;;;4.90;;
12218;SDS011;6172;42.646;23.344;2022-12-18T04:03:37;6.53;;;4.40;;
12218;SDS011;6172;42.646;23.344;2022-12-18T04:06:05;5.87;;;4.07;;
12218;SDS011;6172;42.646;23.344;2022-12-18T04:08:33;7.07;;;4.77;;
12218;SDS011;6172;42.646;23.344;2022-12-18T04:11:01;6.07;;;4.60;;
12218;SDS011;6172;42.646;23.344;2022-12-18T04:13:29;7.93;;;5.00;;
12218;SDS011;6172;42.646;23.344;2022-12-18T04:16:00;5.47;;;4.30;;
12218;SDS011;6172;42.646;23.344;2022-12-18T04:18:27;5.03;;;3.93;;
12218;SDS011;6172;42.646;23.344;2022-12-18T04:20:54;6.33;;;3.93;;
12218;SDS011;6172;42.646;23.344;2022-12-18T04:23:21;8.23;;;4.70;;
12218;SDS011;6172;42.646;23.344;2022-12-18T04:25:48;7.60;;;4.93;;
12218;SDS011;6172;42.646;23.344;2022-12-18T04:28:15;6.93;;;5.23;;
12218;SDS011;6172;42.646;23.344;2022-12-18T04:30:42;7.97;;;4.87;;
12218;SDS011;6172;42.646;23.344;2022-12-18T04:33:11;8.93;;;5.57;;
12218;SDS011;6172;42.646;23.344;2022-12-18T04:35:39;6.93;;;4.70;;
12218;SDS011;6172;42.646;23.344;2022-12-18T04:38:08;7.47;;;4.60;;
12218;SDS011;6172;42.646;23.344;2022-12-18T04:40:36;6.80;;;4.53;;
12218;SDS011;6172;42.646;23.344;2022-12-18T04:43:03;7.73;;;4.60;;
12218;SDS011;6172;42.646;23.344;2022-12-18T04:45:30;7.30;;;4.83;;
12218;SDS011;6172;42.646;23.344;2022-12-18T04:47:58;7.90;;;5.33;;
12218;SDS011;6172;42.646;23.344;2022-12-18T04:50:26;8.33;;;5.40;;
12218;SDS011;6172;42.646;23.344;2022-12-18T04:52:54;6.47;;;5.00;;
12218;SDS011;6172;42.646;23.344;2022-12-18T04:55:24;8.90;;;5.60;;
12218;SDS011;6172;42.646;23.344;2022-12-18T04:57:51;8.07;;;5.40;;
12218;SDS011;6172;42.646;23.344;2022-12-18T05:00:18;7.10;;;4.90;;
12218;SDS011;6172;42.646;23.344;2022-12-18T05:02:45;8.60;;;5.63;;
12218;SDS011;6172;42.646;23.344;2022-12-18T05:05:12;9.23;;;6.03;;
12218;SDS011;6172;42.646;23.344;2022-12-18T05:07:40;9.60;;;6.20;;
12218;SDS011;6172;42.646;23.344;2022-12-18T05:10:07;10.13;;;5.83;;
12218;SDS011;6172;42.646;23.344;2022-12-18T05:12:35;10.90;;;6.50;;
12218;SDS011;6172;42.646;23.344;2022-12-18T05:15:23;7.77;;;5.87;;
12218;SDS011;6172;42.646;23.344;2022-12-18T05:17:50;9.73;;;6.27;;
12218;SDS011;6172;42.646;23.344;2022-12-18T05:20:18;8.67;;;5.47;;
12218;SDS011;6172;42.646;23.344;2022-12-18T05:22:46;10.07;;;6.10;;
12218;SDS011;6172;42.646;23.344;2022-12-18T05:25:13;10.23;;;6.40;;
12218;SDS011;6172;42.646;23.344;2022-12-18T05:27:41;11.17;;;6.50;;
12218;SDS011;6172;42.646;23.344;2022-12-18T05:30:08;10.90;;;7.00;;
12218;SDS011;6172;42.646;23.344;2022-12-18T05:32:37;11.03;;;6.70;;
12218;SDS011;6172;42.646;23.344;2022-12-18T05:35:05;10.30;;;6.47;;
12218;SDS011;6172;42.646;23.344;2022-12-18T05:37:33;11.63;;;6.63;;
12218;SDS011;6172;42.646;23.344;2022-12-18T05:40:02;10.20;;;6.73;;
12218;SDS011;6172;42.646;23.344;2022-12-18T05:42:32;9.40;;;6.30;;
12218;SDS011;6172;42.646;23.344;2022-12-18T05:44:59;10.10;;;6.67;;
12218;SDS011;6172;42.646;23.344;2022-12-18T05:47:26;9.30;;;6.20;;
12218;SDS011;6172;42.646;23.344;2022-12-18T05:49:55;9.90;;;6.10;;
12218;SDS011;6172;42.646;23.344;2022-12-18T05:52:21;11.50;;;8.52;;
12218;SDS011;6172;42.646;23.344;2022-12-18T05:54:48;9.10;;;6.33;;
12218;SDS011;6172;42.646;23.344;2022-12-18T05:57:17;11.23;;;7.07;;
12218;SDS011;6172;42.646;23.344;2022-12-18T05:59:44;12.10;;;6.97;;
12218;SDS011;6172;42.646;23.344;2022-12-18T06:02:11;10.50;;;7.33;;
12218;SDS011;6172;42.646;23.344;2022-12-18T06:04:38;12.47;;;7.37;;
12218;SDS011;6172;42.646;23.344;2022-12-18T06:07:05;10.87;;;7.30;;
12218;SDS011;6172;42.646;23.344;2022-12-18T06:09:33;10.17;;;6.80;;
12218;SDS011;6172;42.646;23.344;2022-12-18T06:12:00;11.60;;;7.73;;
12218;SDS011;6172;42.646;23.344;2022-12-18T06:14:28;12.67;;;7.97;;
12218;SDS011;6172;42.646;23.344;2022-12-18T06:16:55;12.27;;;7.93;;
12218;SDS011;6172;42.646;23.344;2022-12-18T06:19:22;12.03;;;7.00;;
12218;SDS011;6172;42.646;23.344;2022-12-18T06:21:49;11.70;;;7.70;;
12218;SDS011;6172;42.646;23.344;2022-12-18T06:24:16;11.30;;;6.90;;
12218;SDS011;6172;42.646;23.344;2022-12-18T06:26:43;10.37;;;7.20;;
12218;SDS011;6172;42.646;23.344;2022-12-18T06:29:10;14.83;;;8.73;;
12218;SDS011;6172;42.646;23.344;2022-12-18T06:31:38;12.00;;;7.10;;
12218;SDS011;6172;42.646;23.344;2022-12-18T06:34:05;13.17;;;8.47;;
12218;SDS011;6172;42.646;23.344;2022-12-18T06:36:32;14.70;;;8.10;;
12218;SDS011;6172;42.646;23.344;2022-12-18T06:39:00;11.43;;;6.70;;
12218;SDS011;6172;42.646;23.344;2022-12-18T06:41:27;11.33;;;7.33;;
12218;SDS011;6172;42.646;23.344;2022-12-18T06:43:54;11.53;;;6.90;;
12218;SDS011;6172;42.646;23.344;2022-12-18T06:46:21;12.07;;;7.10;;
12218;SDS011;6172;42.646;23.344;2022-12-18T06:48:49;14.30;;;7.57;;
12218;SDS011;6172;42.646;23.344;2022-12-18T06:51:17;15.50;;;7.83;;
12218;SDS011;6172;42.646;23.344;2022-12-18T06:53:46;14.97;;;7.77;;
12218;SDS011;6172;42.646;23.344;2022-12-18T06:56:12;13.60;;;8.13;;
12218;SDS011;6172;42.646;23.344;2022-12-18T06:58:39;10.47;;;6.93;;
12218;SDS011;6172;42.646;23.344;2022-12-18T07:01:07;12.53;;;7.10;;
12218;SDS011;6172;42.646;23.344;2022-12-18T07:03:36;11.23;;;7.07;;
12218;SDS011;6172;42.646;23.344;2022-12-18T07:06:05;10.70;;;7.37;;
12218;SDS011;6172;42.646;23.344;2022-12-18T07:08:32;12.70;;;7.73;;
12218;SDS011;6172;42.646;23.344;2022-12-18T07:11:02;11.23;;;7.37;;
12218;SDS011;6172;42.646;23.344;2022-12-18T07:13:29;11.03;;;6.53;;
12218;SDS011;6172;42.646;23.344;2022-12-18T07:16:02;14.30;;;8.10;;
12218;SDS011;6172;42.646;23.344;2022-12-18T07:18:30;13.47;;;7.33;;
12218;SDS011;6172;42.646;23.344;2022-12-18T07:20:57;15.90;;;8.37;;
12218;SDS011;6172;42.646;23.344;2022-12-18T07:23:25;13.40;;;8.03;;
12218;SDS011;6172;42.646;23.344;2022-12-18T07:25:52;13.67;;;8.20;;
12218;SDS011;6172;42.646;23.344;2022-12-18T07:28:19;14.30;;;7.73;;
12218;SDS011;6172;42.646;23.344;2022-12-18T07:30:45;12.87;;;6.73;;
12218;SDS011;6172;42.646;23.344;2022-12-18T07:33:12;12.67;;;7.63;;
12218;SDS011;6172;42.646;23.344;2022-12-18T07:35:39;13.10;;;7.33;;
12218;SDS011;6172;42.646;23.344;2022-12-18T07:38:06;12.90;;;7.57;;
12218;SDS011;6172;42.646;23.344;2022-12-18T07:40:35;13.07;;;8.13;;
12218;SDS011;6172;42.646;23.344;2022-12-18T07:43:01;13.23;;;7.80;;
12218;SDS011;6172;42.646;23.344;2022-12-18T07:45:31;12.47;;;7.87;;
12218;SDS011;6172;42.646;23.344;2022-12-18T07:47:58;13.97;;;8.47;;
12218;SDS011;6172;42.646;23.344;2022-12-18T07:50:31;13.87;;;8.37;;
12218;SDS011;6172;42.646;23.344;2022-12-18T07:52:59;14.50;;;8.07;;
12218;SDS011;6172;42.646;23.344;2022-12-18T07:55:42;16.03;;;8.70;;
12218;SDS011;6172;42.646;23.344;2022-12-18T07:58:23;12.20;;;7.20;;
12218;SDS011;6172;42.646;23.344;2022-12-18T08:01:10;14.33;;;8.17;;
12218;SDS011;6172;42.646;23.344;2022-12-18T08:03:50;16.83;;;8.70;;
12218;SDS011;6172;42.646;23.344;2022-12-18T08:06:19;13.90;;;8.50;;
12218;SDS011;6172;42.646;23.344;2022-12-18T08:08:52;15.77;;;8.73;;
12218;SDS011;6172;42.646;23.344;2022-12-18T08:11:25;15.33;;;8.57;;
12218;SDS011;6172;42.646;23.344;2022-12-18T08:13:57;14.50;;;8.57;;
12218;SDS011;6172;42.646;23.344;2022-12-18T08:16:26;14.50;;;9.17;;
12218;SDS011;6172;42.646;23.344;2022-12-18T08:18:55;13.33;;;8.70;;
12218;SDS011;6172;42.646;23.344;2022-12-18T08:21:23;16.03;;;9.27;;
12218;SDS011;6172;42.646;23.344;2022-12-18T08:23:54;15.20;;;9.30;;
12218;SDS011;6172;42.646;23.344;2022-12-18T08:26:25;16.03;;;9.90;;
12218;SDS011;6172;42.646;23.344;2022-12-18T08:28:53;14.73;;;9.13;;
12218;SDS011;6172;42.646;23.344;2022-12-18T08:31:21;16.90;;;9.53;;
12218;SDS011;6172;42.646;23.344;2022-12-18T08:33:48;15.87;;;10.17;;
12218;SDS011;6172;42.646;23.344;2022-12-18T08:36:16;16.73;;;9.37;;
12218;SDS011;6172;42.646;23.344;2022-12-18T08:38:44;18.53;;;10.27;;
12218;SDS011;6172;42.646;23.344;2022-12-18T08:41:12;20.27;;;10.33;;
12218;SDS011;6172;42.646;23.344;2022-12-18T08:43:42;18.03;;;9.57;;
12218;SDS011;6172;42.646;23.344;2022-12-18T08:46:23;14.90;;;8.63;;
12218;SDS011;6172;42.646;23.344;2022-12-18T08:48:54;17.43;;;9.73;;
12218;SDS011;6172;42.646;23.344;2022-12-18T08:51:21;18.23;;;10.13;;
12218;SDS011;6172;42.646;23.344;2022-12-18T08:53:48;18.17;;;10.43;;
12218;SDS011;6172;42.646;23.344;2022-12-18T08:56:15;16.30;;;9.87;;
12218;SDS011;6172;42.646;23.344;2022-12-18T08:58:44;16.70;;;9.87;;
12218;SDS011;6172;42.646;23.344;2022-12-18T09:01:11;17.43;;;10.57;;
12218;SDS011;6172;42.646;23.344;2022-12-18T09:03:39;18.40;;;10.33;;
12218;SDS011;6172;42.646;23.344;2022-12-18T09:06:06;18.03;;;10.67;;
12218;SDS011;6172;42.646;23.344;2022-12-18T09:08:39;22.67;;;11.20;;
12218;SDS011;6172;42.646;23.344;2022-12-18T09:11:09;17.53;;;10.63;;
12218;SDS011;6172;42.646;23.344;2022-12-18T09:13:39;19.33;;;11.20;;
12218;SDS011;6172;42.646;23.344;2022-12-18T09:16:08;18.33;;;10.30;;
12218;SDS011;6172;42.646;23.344;2022-12-18T09:18:35;18.90;;;10.47;;
12218;SDS011;6172;42.646;23.344;2022-12-18T09:21:07;19.23;;;11.17;;
12218;SDS011;6172;42.646;23.344;2022-12-18T09:23:36;19.83;;;11.00;;
12218;SDS011;6172;42.646;23.344;2022-12-18T09:26:04;19.33;;;11.03;;
12218;SDS011;6172;42.646;23.344;2022-12-18T09:28:32;17.23;;;10.23;;
12218;SDS011;6172;42.646;23.344;2022-12-18T09:31:03;17.47;;;9.80;;
12218;SDS011;6172;42.646;23.344;2022-12-18T09:33:34;16.90;;;10.10;;
12218;SDS011;6172;42.646;23.344;2022-12-18T09:36:02;20.13;;;11.10;;
12218;SDS011;6172;42.646;23.344;2022-12-18T09:38:31;18.10;;;9.67;;
12218;SDS011;6172;42.646;23.344;2022-12-18T09:40:59;17.97;;;10.00;;
12218;SDS011;6172;42.646;23.344;2022-12-18T09:43:33;18.00;;;9.80;;
12218;SDS011;6172;42.646;23.344;2022-12-18T09:46:08;15.50;;;9.03;;
12218;SDS011;6172;42.646;23.344;2022-12-18T09:48:48;16.27;;;9.17;;
12218;SDS011;6172;42.646;23.344;2022-12-18T09:51:19;15.73;;;9.37;;
12218;SDS011;6172;42.646;23.344;2022-12-18T09:53:50;17.00;;;9.43;;
12218;SDS011;6172;42.646;23.344;2022-12-18T09:56:21;15.93;;;8.77;;
12218;SDS011;6172;42.646;23.344;2022-12-18T09:58:58;18.80;;;9.57;;
12218;SDS011;6172;42.646;23.344;2022-12-18T10:01:27;16.03;;;10.07;;
12218;SDS011;6172;42.646;23.344;2022-12-18T10:03:56;16.20;;;9.47;;
12218;SDS011;6172;42.646;23.344;2022-12-18T10:06:28;16.60;;;9.87;;
12218;SDS011;6172;42.646;23.344;2022-12-18T10:09:02;16.33;;;9.43;;
12218;SDS011;6172;42.646;23.344;2022-12-18T10:11:39;16.90;;;9.33;;
12218;SDS011;6172;42.646;23.344;2022-12-18T10:14:13;14.77;;;9.60;;
12218;SDS011;6172;42.646;23.344;2022-12-18T10:16:48;16.23;;;9.23;;
12218;SDS011;6172;42.646;23.344;2022-12-18T10:19:33;17.63;;;9.60;;
12218;SDS011;6172;42.646;23.344;2022-12-18T10:22:16;17.30;;;8.87;;
12218;SDS011;6172;42.646;23.344;2022-12-18T10:24:52;16.47;;;8.97;;
12218;SDS011;6172;42.646;23.344;2022-12-18T10:27:26;14.13;;;8.87;;
12218;SDS011;6172;42.646;23.344;2022-12-18T10:29:53;14.97;;;9.07;;
12218;SDS011;6172;42.646;23.344;2022-12-18T10:32:21;15.70;;;9.27;;
12218;SDS011;6172;42.646;23.344;2022-12-18T10:34:52;16.30;;;9.17;;
12218;SDS011;6172;42.646;23.344;2022-12-18T10:37:21;17.70;;;9.03;;
12218;SDS011;6172;42.646;23.344;2022-12-18T10:40:04;18.80;;;8.77;;
12218;SDS011;6172;42.646;23.344;2022-12-18T10:42:35;19.07;;;9.67;;
12218;SDS011;6172;42.646;23.344;2022-12-18T10:45:05;17.40;;;9.63;;
12218;SDS011;6172;42.646;23.344;2022-12-18T10:47:36;15.33;;;8.80;;
12218;SDS011;6172;42.646;23.344;2022-12-18T10:50:11;13.27;;;8.63;;
12218;SDS011;6172;42.646;23.344;2022-12-18T10:52:52;14.50;;;8.47;;
12218;SDS011;6172;42.646;23.344;2022-12-18T10:55:23;15.97;;;9.17;;
12218;SDS011;6172;42.646;23.344;2022-12-18T10:58:01;16.00;;;8.90;;
12218;SDS011;6172;42.646;23.344;2022-12-18T11:00:42;14.90;;;9.00;;
12218;SDS011;6172;42.646;23.344;2022-12-18T11:03:28;16.27;;;9.97;;
12218;SDS011;6172;42.646;23.344;2022-12-18T11:06:03;15.67;;;9.63;;
12218;SDS011;6172;42.646;23.344;2022-12-18T11:08:34;16.20;;;8.83;;
12218;SDS011;6172;42.646;23.344;2022-12-18T11:11:02;16.30;;;9.40;;
12218;SDS011;6172;42.646;23.344;2022-12-18T11:13:30;16.03;;;8.97;;
12218;SDS011;6172;42.646;23.344;2022-12-18T11:15:57;13.83;;;7.83;;
12218;SDS011;6172;42.646;23.344;2022-12-18T11:18:26;14.93;;;8.67;;
12218;SDS011;6172;42.646;23.344;2022-12-18T11:20:56;14.27;;;8.10;;
12218;SDS011;6172;42.646;23.344;2022-12-18T11:23:29;11.47;;;7.00;;
12218;SDS011;6172;42.646;23.344;2022-12-18T11:25:57;17.47;;;8.63;;
12218;SDS011;6172;42.646;23.344;2022-12-18T11:28:28;16.93;;;8.97;;
12218;SDS011;6172;42.646;23.344;2022-12-18T11:31:23;13.60;;;8.10;;
12218;SDS011;6172;42.646;23.344;2022-12-18T11:33:54;11.47;;;7.17;;
12218;SDS011;6172;42.646;23.344;2022-12-18T11:36:24;16.00;;;7.73;;
12218;SDS011;6172;42.646;23.344;2022-12-18T11:38:56;14.77;;;7.90;;
12218;SDS011;6172;42.646;23.344;2022-12-18T11:41:27;14.70;;;8.20;;
12218;SDS011;6172;42.646;23.344;2022-12-18T11:44:13;14.97;;;8.20;;
12218;SDS011;6172;42.646;23.344;2022-12-18T11:46:47;13.43;;;8.27;;
12218;SDS011;6172;42.646;23.344;2022-12-18T11:49:19;13.90;;;8.77;;
12218;SDS011;6172;42.646;23.344;2022-12-18T11:51:50;15.77;;;8.37;;
12218;SDS011;6172;42.646;23.344;2022-12-18T11:54:23;14.80;;;7.90;;
12218;SDS011;6172;42.646;23.344;2022-12-18T11:56:50;12.93;;;8.17;;
12218;SDS011;6172;42.646;23.344;2022-12-18T11:59:25;13.47;;;7.33;;
12218;SDS011;6172;42.646;23.344;2022-12-18T12:02:01;11.93;;;6.73;;
12218;SDS011;6172;42.646;23.344;2022-12-18T12:04:50;15.37;;;8.00;;
12218;SDS011;6172;42.646;23.344;2022-12-18T12:07:32;16.00;;;8.50;;
12218;SDS011;6172;42.646;23.344;2022-12-18T12:10:12;14.23;;;8.03;;
12218;SDS011;6172;42.646;23.344;2022-12-18T12:12:56;14.53;;;8.50;;
12218;SDS011;6172;42.646;23.344;2022-12-18T12:15:38;14.07;;;8.37;;
12218;SDS011;6172;42.646;23.344;2022-12-18T12:18:16;15.10;;;8.53;;
12218;SDS011;6172;42.646;23.344;2022-12-18T12:20:57;17.30;;;8.23;;
12218;SDS011;6172;42.646;23.344;2022-12-18T12:23:33;16.93;;;8.80;;
12218;SDS011;6172;42.646;23.344;2022-12-18T12:26:10;17.60;;;9.07;;
12218;SDS011;6172;42.646;23.344;2022-12-18T12:28:48;14.50;;;8.67;;
12218;SDS011;6172;42.646;23.344;2022-12-18T12:31:29;16.13;;;9.27;;
12218;SDS011;6172;42.646;23.344;2022-12-18T12:34:11;14.40;;;8.10;;
12218;SDS011;6172;42.646;23.344;2022-12-18T12:36:48;13.90;;;8.23;;
12218;SDS011;6172;42.646;23.344;2022-12-18T12:39:28;16.60;;;8.17;;
12218;SDS011;6172;42.646;23.344;2022-12-18T12:42:01;15.03;;;8.47;;
12218;SDS011;6172;42.646;23.344;2022-12-18T12:44:48;15.10;;;8.53;;
12218;SDS011;6172;42.646;23.344;2022-12-18T12:47:20;13.87;;;8.67;;
12218;SDS011;6172;42.646;23.344;2022-12-18T12:49:52;16.23;;;8.70;;
12218;SDS011;6172;42.646;23.344;2022-12-18T12:52:24;17.60;;;8.43;;
12218;SDS011;6172;42.646;23.344;2022-12-18T12:54:57;14.40;;;8.60;;
12218;SDS011;6172;42.646;23.344;2022-12-18T12:57:30;17.00;;;10.03;;
12218;SDS011;6172;42.646;23.344;2022-12-18T13:00:10;18.07;;;9.13;;
12218;SDS011;6172;42.646;23.344;2022-12-18T13:02:39;16.70;;;9.53;;
12218;SDS011;6172;42.646;23.344;2022-12-18T13:05:16;16.30;;;9.80;;
12218;SDS011;6172;42.646;23.344;2022-12-18T13:07:51;17.97;;;9.73;;
12218;SDS011;6172;42.646;23.344;2022-12-18T13:10:24;18.43;;;10.30;;
12218;SDS011;6172;42.646;23.344;2022-12-18T13:13:03;20.60;;;10.07;;
12218;SDS011;6172;42.646;23.344;2022-12-18T13:15:33;19.17;;;10.70;;
12218;SDS011;6172;42.646;23.344;2022-12-18T13:18:14;20.30;;;10.13;;
12218;SDS011;6172;42.646;23.344;2022-12-18T13:20:45;16.93;;;10.43;;
12218;SDS011;6172;42.646;23.344;2022-12-18T13:29:04;17.97;;;9.80;;
12218;SDS011;6172;42.646;23.344;2022-12-18T13:34:26;15.60;;;8.90;;
12218;SDS011;6172;42.646;23.344;2022-12-18T13:36:56;17.13;;;9.80;;
12218;SDS011;6172;42.646;23.344;2022-12-18T13:39:43;16.90;;;9.83;;
12218;SDS011;6172;42.646;23.344;2022-12-18T13:42:36;17.53;;;9.87;;
12218;SDS011;6172;42.646;23.344;2022-12-18T13:48:27;15.67;;;8.80;;
12218;SDS011;6172;42.646;23.344;2022-12-18T13:50:59;19.97;;;10.23;;
12218;SDS011;6172;42.646;23.344;2022-12-18T13:53:30;14.83;;;8.93;;
12218;SDS011;6172;42.646;23.344;2022-12-18T13:56:15;17.70;;;9.43;;
12218;SDS011;6172;42.646;23.344;2022-12-18T13:59:12;15.67;;;10.10;;
12218;SDS011;6172;42.646;23.344;2022-12-18T14:01:50;20.10;;;10.07;;
12218;SDS011;6172;42.646;23.344;2022-12-18T14:04:20;18.00;;;10.17;;
12218;SDS011;6172;42.646;23.344;2022-12-18T14:06:51;15.60;;;9.60;;
12218;SDS011;6172;42.646;23.344;2022-12-18T14:09:23;18.77;;;10.40;;
12218;SDS011;6172;42.646;23.344;2022-12-18T14:11:52;18.70;;;9.60;;
12218;SDS011;6172;42.646;23.344;2022-12-18T14:14:42;18.23;;;10.20;;
12218;SDS011;6172;42.646;23.344;2022-12-18T14:17:13;18.07;;;10.27;;
12218;SDS011;6172;42.646;23.344;2022-12-18T14:19:42;16.67;;;8.93;;
12218;SDS011;6172;42.646;23.344;2022-12-18T14:22:17;16.90;;;9.13;;
12218;SDS011;6172;42.646;23.344;2022-12-18T14:24:46;14.73;;;9.17;;
12218;SDS011;6172;42.646;23.344;2022-12-18T14:27:30;16.57;;;7.90;;
12218;SDS011;6172;42.646;23.344;2022-12-18T14:30:18;15.77;;;7.90;;
12218;SDS011;6172;42.646;23.344;2022-12-18T14:33:00;17.20;;;7.77;;
12218;SDS011;6172;42.646;23.344;2022-12-18T14:35:32;14.47;;;7.60;;
12218;SDS011;6172;42.646;23.344;2022-12-18T14:38:11;15.20;;;8.40;;
12218;SDS011;6172;42.646;23.344;2022-12-18T14:40:47;12.93;;;7.30;;
12218;SDS011;6172;42.646;23.344;2022-12-18T14:43:21;13.23;;;7.57;;
12218;SDS011;6172;42.646;23.344;2022-12-18T14:45:48;14.07;;;7.57;;
12218;SDS011;6172;42.646;23.344;2022-12-18T14:48:18;14.57;;;7.80;;
12218;SDS011;6172;42.646;23.344;2022-12-18T14:50:53;13.20;;;7.60;;
12218;SDS011;6172;42.646;23.344;2022-12-18T14:53:23;12.90;;;7.60;;
12218;SDS011;6172;42.646;23.344;2022-12-18T14:55:58;13.37;;;7.83;;
12218;SDS011;6172;42.646;23.344;2022-12-18T14:58:26;14.20;;;7.63;;
12218;SDS011;6172;42.646;23.344;2022-12-18T15:00:53;13.10;;;7.47;;
12218;SDS011;6172;42.646;23.344;2022-12-18T15:03:21;14.50;;;7.43;;
12218;SDS011;6172;42.646;23.344;2022-12-18T15:05:49;12.53;;;7.77;;
12218;SDS011;6172;42.646;23.344;2022-12-18T15:08:30;13.30;;;7.73;;
12218;SDS011;6172;42.646;23.344;2022-12-18T15:11:01;14.83;;;8.17;;
12218;SDS011;6172;42.646;23.344;2022-12-18T15:13:28;16.27;;;8.37;;
12218;SDS011;6172;42.646;23.344;2022-12-18T15:15:56;13.23;;;7.43;;